Solnethnaya, Russia
Current Conditions -  °F | °C
As of 7:30 AM on Thursday 23 Oct 2014 (Local Time) from UIUU Reporting Station
Smoke Smoke  
Wind Chill: 28°   Ceiling: 2800
Heat Index: 28°   Visibility: 3mi
Dew Point: 27°   Wind: 0mph
Humidity: 93%   Direction: NA
Pressure: 29.94"   Gusts: NA
Location:  54.03°N, 108.27°E
Report Text: UIUU 222330Z 00000MPS 5000 FU OVC028CB M02/M03 Q1014 NOSIG RMKQFE716/0955 26450050
Loading
Personal Weather Stations






























Interactive Weather Map
Tropical Storm Tracking
New forecast layout! Learn more

10-Day Weather Forecast

Advertisements
Track Severe Weather on mobile